YWRL weather

Warialda Airport
New South Wales, Australia

Public forecast

Using degrees Celsius for public forecast. Weather courtesy of forecast.io.

Closest aviation weather report (METAR) to Warialda Airport

Closest report is Moree Airport, 36.0 nm (66.7 km) W. Retrieved 2019/12/16 10:00 UTC (3 minutes ago):

YMOR 161000Z AUTO 22014KT 9999 // NCD 33/M00 Q1009

Closest aviation forecast (TAF) to Warialda Airport

Forecast is more than 6 hours old.

Closest forecast is Tamworth Airport, 94.5 nm (175.0 km) S. Retrieved 2019-12-16 00:36 UTC (9 hours ago):

TAF TAF YSTW 152240Z 1600/1618 22012KT CAVOK FM160600 17014KT 9000 -FU NSC FM161000 12014KT 9000 -FU NSC PROB30 1609/1618 4000 FU